Search for airport 
image banner adimage banner adimage banner ad
image banner ad

CA87 - Sce Songs Mesa

Located in San Clemente, United States

ICAO - CA87, IATA -

Data provided by Airmate  

General information

Coordinates: N33°22'46" W117°33'35"
Elevation is 100 feet MSL.
Magnetic variation is 14° East
View others Airports in California

Operational data

Special qualification required
Current time UTC:
Current local time:
METAR: KNFG 212255Z 22009G17KT 10SM CLR 31/16 A2999 RMK AO2 SLP153 T03110161
TAF: TAF KNFG 2121/2221 20010KT 9999 SKC QNH2997INS BECMG 2200/2202 VRB05KT 9999 SKC QNH3002INS BECMG 2219/2221 19010KT 9999 SKC QNH3003INS T37/2121Z T16/2212Z
View NOTAMs / SUP AIP / TFR affecting this airport [VIEW]
Communications frequencies: [VIEW]

Runways:

Airport contact information

Address: San Clemente United States

Satellite view of CA87